createdAt,value
2019-02-21T00:00:24.523Z,20.93
2019-02-21T00:05:30.824Z,20.45
2019-02-21T00:10:39.558Z,21.37
2019-02-21T00:15:48.282Z,20.20
2019-02-21T00:20:56.932Z,27.57
2019-02-21T00:26:05.795Z,21.03
2019-02-21T00:31:14.124Z,19.89
2019-02-21T00:36:23.158Z,18.66
2019-02-21T00:41:31.609Z,18.48
2019-02-21T00:46:40.294Z,18.41
2019-02-21T00:51:48.706Z,18.78
2019-02-21T00:56:57.720Z,17.21
2019-02-21T01:02:06.007Z,16.81
2019-02-21T01:07:14.851Z,17.53
2019-02-21T01:12:23.261Z,16.79
2019-02-21T01:17:32.079Z,18.96
2019-02-21T01:22:40.436Z,19.94
2019-02-21T01:27:49.369Z,18.99
2019-02-21T01:32:56.525Z,17.58
2019-02-21T01:38:05.589Z,18.67
2019-02-21T01:43:13.972Z,18.77
2019-02-21T01:48:22.771Z,17.03
2019-02-21T01:53:31.161Z,16.30
2019-02-21T01:58:39.957Z,15.21
2019-02-21T02:03:48.370Z,15.11
2019-02-21T02:08:57.341Z,16.29
2019-02-21T02:14:05.725Z,14.71
2019-02-21T02:19:14.615Z,15.38
2019-02-21T02:24:23.152Z,14.91
2019-02-21T02:29:32.228Z,16.30
2019-02-21T02:34:40.642Z,14.99
2019-02-21T02:39:49.697Z,14.82
2019-02-21T02:44:58.057Z,13.49
2019-02-21T02:50:06.846Z,15.75
2019-02-21T02:55:15.417Z,14.08
2019-02-21T03:00:24.120Z,14.34
2019-02-21T03:05:32.438Z,12.62
2019-02-21T03:10:41.550Z,14.79
2019-02-21T03:15:49.962Z,12.77
2019-02-21T03:20:59.681Z,12.97
2019-02-21T03:26:08.128Z,12.58
2019-02-21T03:31:17.002Z,13.64
2019-02-21T03:36:25.335Z,14.84
2019-02-21T03:41:32.743Z,14.69
2019-02-21T03:46:41.167Z,12.36
2019-02-21T03:51:49.852Z,12.88
2019-02-21T03:56:58.177Z,14.68
2019-02-21T04:02:06.879Z,16.35
2019-02-21T04:07:15.409Z,16.85
2019-02-21T04:12:24.634Z,15.11
2019-02-21T04:17:32.996Z,16.47
2019-02-21T04:22:40.394Z,15.78
2019-02-21T04:27:48.871Z,15.24
2019-02-21T04:32:58.731Z,16.49
2019-02-21T04:38:07.151Z,16.04
2019-02-21T04:43:15.735Z,15.84
2019-02-21T04:48:24.160Z,15.00
2019-02-21T04:53:32.884Z,15.01
2019-02-21T04:58:41.420Z,17.80
2019-02-21T05:03:50.341Z,15.36
2019-02-21T05:08:58.776Z,15.47
2019-02-21T05:14:07.461Z,15.32
2019-02-21T05:19:16.211Z,16.71
2019-02-21T05:24:24.602Z,16.65
2019-02-21T05:29:33.293Z,15.47
2019-02-21T05:34:41.743Z,15.66
2019-02-21T05:39:50.377Z,15.34
2019-02-21T05:44:59.583Z,14.96
2019-02-21T05:50:09.103Z,17.48
2019-02-21T05:55:07.510Z,14.58
2019-02-21T06:00:16.215Z,12.93
2019-02-21T06:05:24.673Z,14.65
2019-02-21T06:10:33.061Z,14.49
2019-02-21T06:15:41.828Z,12.66
2019-02-21T06:20:50.216Z,14.01
2019-02-21T06:25:59.383Z,15.37
2019-02-21T06:31:07.014Z,15.94
2019-02-21T06:36:15.781Z,16.06
2019-02-21T06:41:24.198Z,16.50
2019-02-21T06:46:32.876Z,17.16
2019-02-21T06:51:41.360Z,19.19
2019-02-21T06:56:55.426Z,21.05
2019-02-21T07:01:54.063Z,20.26
2019-02-21T07:07:02.475Z,18.39
2019-02-21T07:12:12.386Z,19.01
2019-02-21T07:17:20.920Z,20.02
2019-02-21T07:22:29.860Z,22.72
2019-02-21T07:27:38.259Z,22.14
2019-02-21T07:32:48.562Z,20.91
2019-02-21T07:37:46.971Z,21.08
2019-02-21T07:42:55.549Z,19.45
2019-02-21T07:48:04.267Z,21.01
2019-02-21T07:53:12.767Z,20.44
2019-02-21T07:58:21.450Z,20.18
2019-02-21T08:03:43.122Z,24.16
2019-02-21T08:08:38.368Z,22.65
2019-02-21T08:13:47.185Z,21.85
2019-02-21T08:18:56.082Z,23.38
2019-02-21T08:24:05.020Z,21.51
2019-02-21T08:29:13.703Z,22.24
2019-02-21T08:34:22.503Z,23.27
2019-02-21T08:39:30.940Z,20.21
2019-02-21T08:44:39.836Z,22.12
2019-02-21T08:49:48.191Z,23.27
2019-02-21T08:55:00.142Z,23.22
2019-02-21T09:00:05.553Z,23.50
2019-02-21T09:05:15.393Z,23.06
2019-02-21T09:10:23.776Z,23.90
2019-02-21T09:15:32.694Z,22.39
2019-02-21T09:20:41.054Z,22.02
2019-02-21T09:25:49.916Z,21.25
2019-02-21T09:30:58.344Z,22.69
2019-02-21T09:36:06.740Z,23.09
2019-02-21T09:41:15.402Z,22.41
2019-02-21T09:46:23.985Z,22.98
2019-02-21T09:51:33.146Z,25.75
2019-02-21T09:56:52.064Z,24.05
2019-02-21T10:01:49.782Z,23.50
2019-02-21T10:06:58.737Z,23.02
2019-02-21T10:12:07.517Z,25.20
2019-02-21T10:17:15.932Z,24.43
2019-02-21T10:22:26.126Z,24.62
2019-02-21T10:27:32.464Z,25.51
2019-02-21T10:32:41.725Z,24.67
2019-02-21T10:37:50.155Z,25.26
2019-02-21T10:42:58.867Z,24.88
2019-02-21T10:48:07.432Z,22.38
2019-02-21T10:53:16.229Z,25.03
2019-02-21T10:58:25.196Z,25.69
2019-02-21T11:03:33.757Z,25.07
2019-02-21T11:08:42.843Z,25.01
2019-02-21T11:13:51.559Z,23.24
2019-02-21T11:18:59.934Z,24.63
2019-02-21T11:24:08.874Z,25.70
2019-02-21T11:29:17.904Z,24.52
2019-02-21T11:34:26.632Z,25.92
2019-02-21T11:39:35.137Z,24.06
2019-02-21T11:44:50.383Z,24.91
2019-02-21T11:49:49.241Z,23.80
2019-02-21T11:54:59.437Z,27.27
2019-02-21T11:59:58.332Z,28.73
2019-02-21T12:05:17.151Z,24.63
2019-02-21T12:10:16.183Z,27.07
2019-02-21T12:15:25.205Z,24.19
2019-02-21T12:20:34.485Z,26.78
2019-02-21T12:25:43.597Z,23.95
2019-02-21T12:30:53.063Z,22.63
2019-02-21T12:36:03.117Z,23.38
2019-02-21T12:41:02.432Z,21.88
2019-02-21T12:46:09.753Z,23.33
2019-02-21T12:51:18.920Z,22.26
2019-02-21T12:56:27.950Z,22.90
2019-02-21T13:01:38.545Z,24.54
2019-02-21T13:06:37.550Z,22.52
2019-02-21T13:11:46.402Z,21.31
2019-02-21T13:16:55.561Z,23.46
2019-02-21T13:22:04.936Z,21.60
2019-02-21T13:27:14.524Z,20.80
2019-02-21T13:32:24.672Z,20.63
2019-02-21T13:37:28.958Z,22.47
2019-02-21T13:42:31.890Z,20.90
2019-02-21T13:47:41.197Z,21.88
2019-02-21T13:52:50.148Z,23.78
2019-02-21T13:57:59.511Z,22.61
2019-02-21T14:03:08.520Z,23.85
2019-02-21T14:08:18.161Z,22.92
2019-02-21T14:13:26.642Z,23.25
2019-02-21T14:18:35.724Z,24.67
2019-02-21T14:23:44.725Z,27.62
2019-02-21T14:28:53.818Z,23.70
2019-02-21T14:34:03.346Z,24.26
2019-02-21T14:39:12.331Z,23.87
2019-02-21T14:44:19.795Z,24.92
2019-02-21T14:49:29.007Z,23.68
2019-02-21T14:54:38.203Z,25.91
2019-02-21T14:59:47.557Z,25.43
2019-02-21T15:04:56.523Z,27.34
2019-02-21T15:10:04.318Z,26.64
2019-02-21T15:15:13.288Z,24.72
2019-02-21T15:20:22.593Z,27.48
2019-02-21T15:25:31.954Z,25.07
2019-02-21T15:30:40.958Z,25.18
2019-02-21T15:35:49.861Z,24.71
2019-02-21T15:41:01.255Z,28.01
2019-02-21T15:46:00.346Z,24.84
2019-02-21T15:51:09.373Z,24.91
2019-02-21T15:56:17.818Z,26.64
2019-02-21T16:01:27.170Z,24.98
2019-02-21T16:06:37.940Z,24.24
2019-02-21T16:11:45.935Z,26.02
2019-02-21T16:16:44.314Z,25.70
2019-02-21T16:21:53.247Z,26.93
2019-02-21T16:27:02.624Z,29.31
2019-02-21T16:32:12.017Z,22.37
2019-02-21T16:37:21.484Z,26.03
2019-02-21T16:42:30.539Z,22.21
2019-02-21T16:47:40.954Z,23.83
2019-02-21T16:52:40.291Z,24.90
2019-02-21T16:57:49.334Z,24.85
2019-02-21T17:03:02.260Z,24.57
2019-02-21T17:08:01.885Z,24.84
2019-02-21T17:13:10.877Z,25.71
2019-02-21T17:18:25.847Z,24.47
2019-02-21T17:23:24.761Z,24.60
2019-02-21T17:28:33.847Z,26.72
2019-02-21T17:33:43.199Z,29.48
2019-02-21T17:38:52.304Z,26.33
2019-02-21T17:44:02.991Z,26.63
2019-02-21T17:49:01.919Z,25.68
2019-02-21T17:54:10.542Z,24.99
2019-02-21T17:59:19.853Z,25.92
2019-02-21T18:04:28.946Z,25.04
2019-02-21T18:09:38.186Z,26.09
2019-02-21T18:14:47.151Z,25.64
2019-02-21T18:19:56.353Z,24.86
2019-02-21T18:25:05.395Z,26.46
2019-02-21T18:30:14.471Z,26.21
2019-02-21T18:35:23.466Z,29.58
2019-02-21T18:40:32.849Z,28.75
2019-02-21T18:45:41.936Z,27.05
2019-02-21T18:50:51.574Z,28.37
2019-02-21T18:56:00.204Z,27.06
2019-02-21T19:01:08.801Z,27.33
2019-02-21T19:06:18.028Z,27.58
2019-02-21T19:11:27.064Z,27.88
2019-02-21T19:16:36.351Z,31.31
2019-02-21T19:21:45.965Z,26.68
2019-02-21T19:26:54.987Z,29.63
2019-02-21T19:32:04.005Z,32.54
2019-02-21T19:37:13.311Z,33.11
2019-02-21T19:42:22.336Z,33.25
2019-02-21T19:47:31.180Z,29.76
2019-02-21T19:52:39.748Z,29.08
2019-02-21T19:57:49.667Z,29.04
2019-02-21T20:02:58.902Z,31.12
2019-02-21T20:08:08.996Z,31.29
2019-02-21T20:13:16.330Z,29.86
2019-02-21T20:18:26.669Z,30.04
2019-02-21T20:23:26.047Z,32.20
2019-02-21T20:28:34.934Z,30.02
2019-02-21T20:33:44.730Z,31.48
2019-02-21T20:38:53.452Z,31.09
2019-02-21T20:44:03.710Z,31.14
2019-02-21T20:49:02.200Z,28.32
2019-02-21T20:54:12.955Z,30.91
2019-02-21T20:59:19.529Z,27.37
2019-02-21T21:04:28.779Z,29.51
2019-02-21T21:09:37.972Z,29.57
2019-02-21T21:14:47.296Z,30.83
2019-02-21T21:19:56.286Z,30.92
2019-02-21T21:25:08.673Z,31.90
2019-02-21T21:30:07.524Z,31.58
2019-02-21T21:35:17.073Z,31.84
2019-02-21T21:40:26.319Z,29.41
2019-02-21T21:45:35.321Z,30.78
2019-02-21T21:50:44.270Z,30.47
2019-02-21T21:55:54.281Z,29.85
2019-02-21T22:00:53.653Z,31.00
2019-02-21T22:06:02.548Z,30.53
2019-02-21T22:11:12.011Z,30.89
2019-02-21T22:16:21.174Z,29.12
2019-02-21T22:21:30.693Z,28.09
2019-02-21T22:26:39.106Z,27.19
2019-02-21T22:31:50.320Z,26.05
2019-02-21T22:36:49.270Z,25.63
2019-02-21T22:41:58.298Z,29.78
2019-02-21T22:47:07.462Z,26.15
2019-02-21T22:52:17.136Z,27.72
2019-02-21T22:57:25.780Z,29.83
2019-02-21T23:02:24.152Z,28.83
2019-02-21T23:07:32.638Z,30.15
2019-02-21T23:12:41.699Z,28.96
2019-02-21T23:17:50.549Z,31.57
2019-02-21T23:22:59.415Z,35.43
2019-02-21T23:28:08.683Z,32.44
2019-02-21T23:33:17.061Z,35.80
2019-02-21T23:38:26.491Z,35.22
2019-02-21T23:43:35.535Z,32.60
2019-02-21T23:48:44.941Z,35.64
2019-02-21T23:54:02.794Z,37.74
2019-02-21T23:59:02.188Z,38.05
